sensor_id;sensor_type;location;lat;lon;timestamp;P1;durP1;ratioP1;P2;durP2;ratioP2
72939;SDS011;61094;51.154;13.570;2023-03-03T00:00:37;43.17;;;12.52;;
72939;SDS011;61094;51.154;13.570;2023-03-03T00:02:38;35.13;;;13.52;;
72939;SDS011;61094;51.154;13.570;2023-03-03T00:04:41;34.25;;;11.27;;
72939;SDS011;61094;51.154;13.570;2023-03-03T00:06:43;33.95;;;11.95;;
72939;SDS011;61094;51.154;13.570;2023-03-03T00:09:07;30.38;;;10.90;;
72939;SDS011;61094;51.154;13.570;2023-03-03T00:11:31;34.78;;;11.77;;
72939;SDS011;61094;51.154;13.570;2023-03-03T00:13:38;42.30;;;13.27;;
72939;SDS011;61094;51.154;13.570;2023-03-03T00:15:45;37.28;;;12.73;;
72939;SDS011;61094;51.154;13.570;2023-03-03T00:17:48;27.98;;;10.35;;
72939;SDS011;61094;51.154;13.570;2023-03-03T00:19:51;33.30;;;10.48;;
72939;SDS011;61094;51.154;13.570;2023-03-03T00:22:16;29.50;;;9.98;;
72939;SDS011;61094;51.154;13.570;2023-03-03T00:24:30;36.67;;;10.43;;
72939;SDS011;61094;51.154;13.570;2023-03-03T00:26:38;26.23;;;8.95;;
72939;SDS011;61094;51.154;13.570;2023-03-03T00:28:44;27.30;;;10.07;;
72939;SDS011;61094;51.154;13.570;2023-03-03T00:30:48;27.60;;;10.00;;
72939;SDS011;61094;51.154;13.570;2023-03-03T00:32:50;29.63;;;11.82;;
72939;SDS011;61094;51.154;13.570;2023-03-03T00:34:53;31.40;;;11.05;;
72939;SDS011;61094;51.154;13.570;2023-03-03T00:36:57;25.45;;;10.02;;
72939;SDS011;61094;51.154;13.570;2023-03-03T00:39:12;28.80;;;11.45;;
72939;SDS011;61094;51.154;13.570;2023-03-03T00:41:21;31.10;;;10.63;;
72939;SDS011;61094;51.154;13.570;2023-03-03T00:43:25;29.15;;;10.55;;
72939;SDS011;61094;51.154;13.570;2023-03-03T00:45:38;31.10;;;9.43;;
72939;SDS011;61094;51.154;13.570;2023-03-03T00:47:44;29.23;;;9.50;;
72939;SDS011;61094;51.154;13.570;2023-03-03T00:49:46;27.13;;;8.65;;
72939;SDS011;61094;51.154;13.570;2023-03-03T00:51:48;27.55;;;9.68;;
72939;SDS011;61094;51.154;13.570;2023-03-03T00:53:50;26.23;;;11.10;;
72939;SDS011;61094;51.154;13.570;2023-03-03T00:55:52;30.15;;;10.88;;
72939;SDS011;61094;51.154;13.570;2023-03-03T00:57:55;27.70;;;9.35;;
72939;SDS011;61094;51.154;13.570;2023-03-03T01:00:02;29.98;;;11.25;;
72939;SDS011;61094;51.154;13.570;2023-03-03T01:02:06;29.85;;;10.52;;
72939;SDS011;61094;51.154;13.570;2023-03-03T01:04:08;26.77;;;10.60;;
72939;SDS011;61094;51.154;13.570;2023-03-03T01:06:10;29.85;;;9.80;;
72939;SDS011;61094;51.154;13.570;2023-03-03T01:08:12;26.10;;;10.02;;
72939;SDS011;61094;51.154;13.570;2023-03-03T01:10:14;27.60;;;11.15;;
72939;SDS011;61094;51.154;13.570;2023-03-03T01:12:16;30.65;;;10.32;;
72939;SDS011;61094;51.154;13.570;2023-03-03T01:14:19;29.60;;;10.38;;
72939;SDS011;61094;51.154;13.570;2023-03-03T01:16:21;35.33;;;12.25;;
72939;SDS011;61094;51.154;13.570;2023-03-03T01:18:25;26.48;;;9.93;;
72939;SDS011;61094;51.154;13.570;2023-03-03T01:20:27;24.98;;;8.63;;
72939;SDS011;61094;51.154;13.570;2023-03-03T01:22:29;34.58;;;11.40;;
72939;SDS011;61094;51.154;13.570;2023-03-03T01:24:53;36.25;;;12.30;;
72939;SDS011;61094;51.154;13.570;2023-03-03T01:26:55;25.83;;;11.25;;
72939;SDS011;61094;51.154;13.570;2023-03-03T01:28:57;30.00;;;11.18;;
72939;SDS011;61094;51.154;13.570;2023-03-03T01:30:59;33.35;;;11.82;;
72939;SDS011;61094;51.154;13.570;2023-03-03T01:33:02;28.52;;;8.90;;
72939;SDS011;61094;51.154;13.570;2023-03-03T01:35:05;25.83;;;9.30;;
72939;SDS011;61094;51.154;13.570;2023-03-03T01:37:08;27.15;;;10.05;;
72939;SDS011;61094;51.154;13.570;2023-03-03T01:39:09;28.33;;;11.30;;
72939;SDS011;61094;51.154;13.570;2023-03-03T01:41:11;28.67;;;10.82;;
72939;SDS011;61094;51.154;13.570;2023-03-03T01:48:40;20.63;;;7.15;;
72939;SDS011;61094;51.154;13.570;2023-03-03T01:50:46;25.50;;;8.23;;
72939;SDS011;61094;51.154;13.570;2023-03-03T01:52:52;30.10;;;9.82;;
72939;SDS011;61094;51.154;13.570;2023-03-03T01:54:56;28.17;;;9.18;;
72939;SDS011;61094;51.154;13.570;2023-03-03T01:57:03;21.83;;;9.57;;
72939;SDS011;61094;51.154;13.570;2023-03-03T01:59:13;22.95;;;8.43;;
72939;SDS011;61094;51.154;13.570;2023-03-03T02:01:19;22.40;;;8.75;;
72939;SDS011;61094;51.154;13.570;2023-03-03T02:03:23;24.20;;;6.90;;
72939;SDS011;61094;51.154;13.570;2023-03-03T02:05:27;29.73;;;8.73;;
72939;SDS011;61094;51.154;13.570;2023-03-03T02:07:30;27.70;;;9.07;;
72939;SDS011;61094;51.154;13.570;2023-03-03T02:09:35;27.63;;;9.93;;
72939;SDS011;61094;51.154;13.570;2023-03-03T02:11:41;26.63;;;10.32;;
72939;SDS011;61094;51.154;13.570;2023-03-03T02:13:46;22.02;;;9.13;;
72939;SDS011;61094;51.154;13.570;2023-03-03T02:15:47;23.73;;;9.55;;
72939;SDS011;61094;51.154;13.570;2023-03-03T02:17:51;26.80;;;10.20;;
72939;SDS011;61094;51.154;13.570;2023-03-03T02:20:00;23.83;;;8.07;;
72939;SDS011;61094;51.154;13.570;2023-03-03T02:22:06;18.23;;;7.13;;
72939;SDS011;61094;51.154;13.570;2023-03-03T02:24:12;31.38;;;8.65;;
72939;SDS011;61094;51.154;13.570;2023-03-03T02:26:20;22.55;;;7.90;;
72939;SDS011;61094;51.154;13.570;2023-03-03T02:28:28;26.02;;;8.88;;
72939;SDS011;61094;51.154;13.570;2023-03-03T02:30:36;24.17;;;8.57;;
72939;SDS011;61094;51.154;13.570;2023-03-03T02:32:39;22.60;;;10.02;;
72939;SDS011;61094;51.154;13.570;2023-03-03T02:34:45;28.92;;;7.68;;
72939;SDS011;61094;51.154;13.570;2023-03-03T02:36:49;25.83;;;8.15;;
72939;SDS011;61094;51.154;13.570;2023-03-03T02:38:52;23.98;;;8.80;;
72939;SDS011;61094;51.154;13.570;2023-03-03T02:41:02;30.35;;;9.48;;
72939;SDS011;61094;51.154;13.570;2023-03-03T02:43:10;32.70;;;12.10;;
72939;SDS011;61094;51.154;13.570;2023-03-03T02:45:12;23.98;;;9.38;;
72939;SDS011;61094;51.154;13.570;2023-03-03T02:47:14;28.98;;;9.98;;
72939;SDS011;61094;51.154;13.570;2023-03-03T02:49:17;25.13;;;8.32;;
72939;SDS011;61094;51.154;13.570;2023-03-03T02:51:20;22.58;;;7.90;;
72939;SDS011;61094;51.154;13.570;2023-03-03T02:53:21;21.90;;;8.70;;
72939;SDS011;61094;51.154;13.570;2023-03-03T02:55:24;27.35;;;8.25;;
72939;SDS011;61094;51.154;13.570;2023-03-03T02:57:26;27.02;;;8.88;;
72939;SDS011;61094;51.154;13.570;2023-03-03T02:59:29;26.85;;;8.77;;
72939;SDS011;61094;51.154;13.570;2023-03-03T03:01:36;26.70;;;8.95;;
72939;SDS011;61094;51.154;13.570;2023-03-03T03:03:43;22.85;;;9.23;;
72939;SDS011;61094;51.154;13.570;2023-03-03T03:05:46;23.00;;;7.68;;
72939;SDS011;61094;51.154;13.570;2023-03-03T03:07:47;31.95;;;10.65;;
72939;SDS011;61094;51.154;13.570;2023-03-03T03:09:50;25.70;;;8.73;;
72939;SDS011;61094;51.154;13.570;2023-03-03T03:11:52;24.70;;;9.30;;
72939;SDS011;61094;51.154;13.570;2023-03-03T03:16:00;17.83;;;6.55;;
72939;SDS011;61094;51.154;13.570;2023-03-03T03:18:03;24.83;;;9.00;;
72939;SDS011;61094;51.154;13.570;2023-03-03T03:20:06;26.08;;;9.05;;
72939;SDS011;61094;51.154;13.570;2023-03-03T03:22:08;24.00;;;7.93;;
72939;SDS011;61094;51.154;13.570;2023-03-03T03:24:10;29.30;;;10.10;;
72939;SDS011;61094;51.154;13.570;2023-03-03T03:26:15;68.18;;;26.83;;
72939;SDS011;61094;51.154;13.570;2023-03-03T03:28:22;27.83;;;9.55;;
72939;SDS011;61094;51.154;13.570;2023-03-03T03:30:24;38.25;;;13.90;;
72939;SDS011;61094;51.154;13.570;2023-03-03T03:32:27;61.50;;;24.83;;
72939;SDS011;61094;51.154;13.570;2023-03-03T03:34:29;22.67;;;8.88;;
72939;SDS011;61094;51.154;13.570;2023-03-03T03:36:31;25.75;;;8.25;;
72939;SDS011;61094;51.154;13.570;2023-03-03T03:38:33;26.48;;;9.25;;
72939;SDS011;61094;51.154;13.570;2023-03-03T03:40:37;20.48;;;8.05;;
72939;SDS011;61094;51.154;13.570;2023-03-03T03:42:39;26.17;;;9.05;;
72939;SDS011;61094;51.154;13.570;2023-03-03T03:44:41;25.75;;;8.75;;
72939;SDS011;61094;51.154;13.570;2023-03-03T03:46:43;23.58;;;7.57;;
72939;SDS011;61094;51.154;13.570;2023-03-03T03:48:46;27.27;;;10.52;;
72939;SDS011;61094;51.154;13.570;2023-03-03T03:50:50;19.40;;;7.50;;
72939;SDS011;61094;51.154;13.570;2023-03-03T03:52:53;26.98;;;9.65;;
72939;SDS011;61094;51.154;13.570;2023-03-03T03:54:54;23.02;;;8.02;;
72939;SDS011;61094;51.154;13.570;2023-03-03T03:56:56;22.15;;;7.88;;
72939;SDS011;61094;51.154;13.570;2023-03-03T03:58:58;26.20;;;8.77;;
72939;SDS011;61094;51.154;13.570;2023-03-03T04:01:01;23.70;;;7.72;;
72939;SDS011;61094;51.154;13.570;2023-03-03T04:03:03;23.70;;;8.98;;
72939;SDS011;61094;51.154;13.570;2023-03-03T04:05:07;20.30;;;7.88;;
72939;SDS011;61094;51.154;13.570;2023-03-03T04:07:10;22.55;;;6.32;;
72939;SDS011;61094;51.154;13.570;2023-03-03T04:09:12;19.38;;;5.88;;
72939;SDS011;61094;51.154;13.570;2023-03-03T04:11:14;27.17;;;7.95;;
72939;SDS011;61094;51.154;13.570;2023-03-03T04:13:16;27.60;;;10.88;;
72939;SDS011;61094;51.154;13.570;2023-03-03T04:15:18;20.48;;;8.52;;
72939;SDS011;61094;51.154;13.570;2023-03-03T04:17:20;23.10;;;9.20;;
72939;SDS011;61094;51.154;13.570;2023-03-03T04:19:24;23.85;;;8.27;;
72939;SDS011;61094;51.154;13.570;2023-03-03T04:21:27;21.38;;;6.25;;
72939;SDS011;61094;51.154;13.570;2023-03-03T04:23:31;24.05;;;6.57;;
72939;SDS011;61094;51.154;13.570;2023-03-03T04:25:34;22.42;;;7.40;;
72939;SDS011;61094;51.154;13.570;2023-03-03T04:27:46;21.92;;;7.35;;
72939;SDS011;61094;51.154;13.570;2023-03-03T04:29:49;23.88;;;7.80;;
72939;SDS011;61094;51.154;13.570;2023-03-03T04:31:51;26.52;;;7.95;;
72939;SDS011;61094;51.154;13.570;2023-03-03T04:33:53;24.50;;;8.25;;
72939;SDS011;61094;51.154;13.570;2023-03-03T04:35:56;25.42;;;6.53;;
72939;SDS011;61094;51.154;13.570;2023-03-03T04:37:59;26.08;;;6.97;;
72939;SDS011;61094;51.154;13.570;2023-03-03T04:40:01;21.15;;;4.95;;
72939;SDS011;61094;51.154;13.570;2023-03-03T04:42:04;25.25;;;7.78;;
72939;SDS011;61094;51.154;13.570;2023-03-03T04:44:06;22.15;;;7.05;;
72939;SDS011;61094;51.154;13.570;2023-03-03T04:46:07;26.48;;;8.50;;
72939;SDS011;61094;51.154;13.570;2023-03-03T04:48:11;25.95;;;7.82;;
72939;SDS011;61094;51.154;13.570;2023-03-03T04:50:14;19.90;;;8.43;;
72939;SDS011;61094;51.154;13.570;2023-03-03T04:52:16;22.13;;;7.47;;
72939;SDS011;61094;51.154;13.570;2023-03-03T04:54:19;22.85;;;8.90;;
72939;SDS011;61094;51.154;13.570;2023-03-03T04:56:21;24.50;;;6.88;;
72939;SDS011;61094;51.154;13.570;2023-03-03T04:58:23;19.58;;;6.25;;
72939;SDS011;61094;51.154;13.570;2023-03-03T05:00:25;31.27;;;9.40;;
72939;SDS011;61094;51.154;13.570;2023-03-03T05:02:27;20.10;;;7.68;;
72939;SDS011;61094;51.154;13.570;2023-03-03T05:04:29;19.35;;;7.50;;
72939;SDS011;61094;51.154;13.570;2023-03-03T05:06:31;15.60;;;5.03;;
72939;SDS011;61094;51.154;13.570;2023-03-03T05:08:33;17.67;;;6.50;;
72939;SDS011;61094;51.154;13.570;2023-03-03T05:10:36;22.10;;;6.55;;
72939;SDS011;61094;51.154;13.570;2023-03-03T05:12:38;20.92;;;6.05;;
72939;SDS011;61094;51.154;13.570;2023-03-03T05:14:40;19.85;;;6.75;;
72939;SDS011;61094;51.154;13.570;2023-03-03T05:16:42;18.73;;;7.68;;
72939;SDS011;61094;51.154;13.570;2023-03-03T05:18:44;25.83;;;7.53;;
72939;SDS011;61094;51.154;13.570;2023-03-03T05:20:46;23.48;;;7.88;;
72939;SDS011;61094;51.154;13.570;2023-03-03T05:22:48;30.88;;;8.65;;
72939;SDS011;61094;51.154;13.570;2023-03-03T05:24:50;31.80;;;10.25;;
72939;SDS011;61094;51.154;13.570;2023-03-03T05:26:59;26.85;;;7.85;;
72939;SDS011;61094;51.154;13.570;2023-03-03T05:29:05;23.73;;;6.50;;
72939;SDS011;61094;51.154;13.570;2023-03-03T05:31:07;22.13;;;6.78;;
72939;SDS011;61094;51.154;13.570;2023-03-03T05:33:11;18.10;;;6.07;;
72939;SDS011;61094;51.154;13.570;2023-03-03T05:35:14;17.02;;;5.57;;
72939;SDS011;61094;51.154;13.570;2023-03-03T05:37:16;18.60;;;8.00;;
72939;SDS011;61094;51.154;13.570;2023-03-03T05:39:18;21.00;;;7.70;;
72939;SDS011;61094;51.154;13.570;2023-03-03T05:41:19;20.73;;;7.75;;
72939;SDS011;61094;51.154;13.570;2023-03-03T05:43:23;19.90;;;6.65;;
72939;SDS011;61094;51.154;13.570;2023-03-03T05:45:25;20.85;;;7.35;;
72939;SDS011;61094;51.154;13.570;2023-03-03T05:47:26;21.45;;;6.53;;
72939;SDS011;61094;51.154;13.570;2023-03-03T05:49:29;18.50;;;4.82;;
72939;SDS011;61094;51.154;13.570;2023-03-03T05:51:30;22.35;;;7.85;;
72939;SDS011;61094;51.154;13.570;2023-03-03T05:53:32;22.85;;;6.30;;
72939;SDS011;61094;51.154;13.570;2023-03-03T05:55:34;20.40;;;5.55;;
72939;SDS011;61094;51.154;13.570;2023-03-03T05:57:35;18.60;;;6.57;;
72939;SDS011;61094;51.154;13.570;2023-03-03T05:59:38;20.65;;;6.32;;
72939;SDS011;61094;51.154;13.570;2023-03-03T06:01:40;20.67;;;6.93;;
72939;SDS011;61094;51.154;13.570;2023-03-03T06:03:42;19.25;;;7.82;;
72939;SDS011;61094;51.154;13.570;2023-03-03T06:05:43;20.30;;;6.65;;
72939;SDS011;61094;51.154;13.570;2023-03-03T06:07:45;16.70;;;6.20;;
72939;SDS011;61094;51.154;13.570;2023-03-03T06:09:47;17.92;;;6.55;;
72939;SDS011;61094;51.154;13.570;2023-03-03T06:11:48;21.08;;;6.78;;
72939;SDS011;61094;51.154;13.570;2023-03-03T06:13:51;16.23;;;6.53;;
72939;SDS011;61094;51.154;13.570;2023-03-03T06:15:54;15.70;;;5.30;;
72939;SDS011;61094;51.154;13.570;2023-03-03T06:17:56;22.45;;;5.63;;
72939;SDS011;61094;51.154;13.570;2023-03-03T06:19:58;19.08;;;5.25;;
72939;SDS011;61094;51.154;13.570;2023-03-03T06:22:00;22.33;;;7.15;;
72939;SDS011;61094;51.154;13.570;2023-03-03T06:24:01;19.83;;;7.15;;
72939;SDS011;61094;51.154;13.570;2023-03-03T06:26:03;22.20;;;7.10;;
72939;SDS011;61094;51.154;13.570;2023-03-03T06:28:05;23.48;;;6.03;;
72939;SDS011;61094;51.154;13.570;2023-03-03T06:30:07;13.90;;;5.72;;
72939;SDS011;61094;51.154;13.570;2023-03-03T06:32:11;15.95;;;4.85;;
72939;SDS011;61094;51.154;13.570;2023-03-03T06:34:12;14.07;;;6.72;;
72939;SDS011;61094;51.154;13.570;2023-03-03T06:36:14;21.17;;;6.97;;
72939;SDS011;61094;51.154;13.570;2023-03-03T06:38:16;18.52;;;6.15;;
72939;SDS011;61094;51.154;13.570;2023-03-03T06:40:18;21.20;;;7.40;;
72939;SDS011;61094;51.154;13.570;2023-03-03T06:42:19;18.33;;;6.70;;
72939;SDS011;61094;51.154;13.570;2023-03-03T06:44:23;18.63;;;6.38;;
72939;SDS011;61094;51.154;13.570;2023-03-03T06:46:25;23.70;;;6.43;;
72939;SDS011;61094;51.154;13.570;2023-03-03T06:48:29;21.15;;;6.72;;
72939;SDS011;61094;51.154;13.570;2023-03-03T06:50:32;14.27;;;5.53;;
72939;SDS011;61094;51.154;13.570;2023-03-03T06:52:34;20.55;;;5.40;;
72939;SDS011;61094;51.154;13.570;2023-03-03T06:54:36;20.27;;;5.47;;
72939;SDS011;61094;51.154;13.570;2023-03-03T06:56:37;16.52;;;5.78;;
72939;SDS011;61094;51.154;13.570;2023-03-03T06:58:40;20.13;;;6.03;;
72939;SDS011;61094;51.154;13.570;2023-03-03T07:00:42;17.38;;;6.75;;
72939;SDS011;61094;51.154;13.570;2023-03-03T07:02:45;10.55;;;4.55;;
72939;SDS011;61094;51.154;13.570;2023-03-03T07:04:48;16.02;;;5.65;;
72939;SDS011;61094;51.154;13.570;2023-03-03T07:06:50;19.25;;;5.70;;
72939;SDS011;61094;51.154;13.570;2023-03-03T07:08:52;14.43;;;6.05;;
72939;SDS011;61094;51.154;13.570;2023-03-03T07:10:57;22.80;;;6.15;;
72939;SDS011;61094;51.154;13.570;2023-03-03T07:13:15;21.15;;;5.93;;
72939;SDS011;61094;51.154;13.570;2023-03-03T07:15:20;14.07;;;4.78;;
72939;SDS011;61094;51.154;13.570;2023-03-03T07:17:24;16.65;;;5.85;;
72939;SDS011;61094;51.154;13.570;2023-03-03T07:19:28;13.32;;;4.47;;
72939;SDS011;61094;51.154;13.570;2023-03-03T07:21:34;12.38;;;4.47;;
72939;SDS011;61094;51.154;13.570;2023-03-03T07:23:38;20.92;;;6.32;;
72939;SDS011;61094;51.154;13.570;2023-03-03T07:25:42;10.20;;;3.28;;
72939;SDS011;61094;51.154;13.570;2023-03-03T07:27:45;10.82;;;4.25;;
72939;SDS011;61094;51.154;13.570;2023-03-03T07:29:47;7.22;;;2.60;;
72939;SDS011;61094;51.154;13.570;2023-03-03T07:31:51;11.05;;;3.35;;
72939;SDS011;61094;51.154;13.570;2023-03-03T07:33:55;9.63;;;3.85;;
72939;SDS011;61094;51.154;13.570;2023-03-03T07:35:59;13.43;;;3.92;;
72939;SDS011;61094;51.154;13.570;2023-03-03T07:38:11;12.25;;;3.47;;
72939;SDS011;61094;51.154;13.570;2023-03-03T07:42:31;8.57;;;3.63;;
72939;SDS011;61094;51.154;13.570;2023-03-03T07:44:55;5.22;;;2.67;;
72939;SDS011;61094;51.154;13.570;2023-03-03T07:46:58;10.68;;;4.15;;
72939;SDS011;61094;51.154;13.570;2023-03-03T07:49:13;12.93;;;3.72;;
72939;SDS011;61094;51.154;13.570;2023-03-03T07:51:22;8.23;;;3.10;;
72939;SDS011;61094;51.154;13.570;2023-03-03T07:53:28;14.35;;;4.00;;
72939;SDS011;61094;51.154;13.570;2023-03-03T07:55:34;13.20;;;5.00;;
72939;SDS011;61094;51.154;13.570;2023-03-03T07:57:37;13.70;;;3.47;;
72939;SDS011;61094;51.154;13.570;2023-03-03T08:00:43;8.98;;;3.17;;
72939;SDS011;61094;51.154;13.570;2023-03-03T08:03:03;11.07;;;3.45;;
72939;SDS011;61094;51.154;13.570;2023-03-03T08:05:26;14.25;;;4.55;;
72939;SDS011;61094;51.154;13.570;2023-03-03T08:07:32;11.02;;;4.28;;
72939;SDS011;61094;51.154;13.570;2023-03-03T08:09:38;7.57;;;3.67;;
72939;SDS011;61094;51.154;13.570;2023-03-03T08:11:46;14.68;;;5.20;;
72939;SDS011;61094;51.154;13.570;2023-03-03T08:13:51;11.73;;;4.47;;
72939;SDS011;61094;51.154;13.570;2023-03-03T08:15:55;11.23;;;3.88;;
72939;SDS011;61094;51.154;13.570;2023-03-03T08:18:01;10.25;;;3.30;;
72939;SDS011;61094;51.154;13.570;2023-03-03T08:20:37;7.13;;;2.65;;
72939;SDS011;61094;51.154;13.570;2023-03-03T08:22:43;12.18;;;4.13;;
72939;SDS011;61094;51.154;13.570;2023-03-03T08:24:46;8.18;;;2.80;;
72939;SDS011;61094;51.154;13.570;2023-03-03T08:26:48;14.15;;;4.07;;
72939;SDS011;61094;51.154;13.570;2023-03-03T08:28:49;13.57;;;4.88;;
72939;SDS011;61094;51.154;13.570;2023-03-03T08:30:52;6.55;;;3.05;;
72939;SDS011;61094;51.154;13.570;2023-03-03T08:33:13;13.88;;;4.20;;
72939;SDS011;61094;51.154;13.570;2023-03-03T08:35:37;12.77;;;3.75;;
72939;SDS011;61094;51.154;13.570;2023-03-03T08:37:40;8.82;;;3.75;;
72939;SDS011;61094;51.154;13.570;2023-03-03T08:39:42;9.98;;;3.08;;
72939;SDS011;61094;51.154;13.570;2023-03-03T08:41:46;12.73;;;3.97;;
72939;SDS011;61094;51.154;13.570;2023-03-03T08:43:47;10.60;;;3.88;;
72939;SDS011;61094;51.154;13.570;2023-03-03T08:45:50;10.40;;;3.15;;
72939;SDS011;61094;51.154;13.570;2023-03-03T08:47:53;13.90;;;5.22;;
72939;SDS011;61094;51.154;13.570;2023-03-03T08:49:55;14.88;;;4.57;;
72939;SDS011;61094;51.154;13.570;2023-03-03T08:51:56;12.43;;;4.28;;
72939;SDS011;61094;51.154;13.570;2023-03-03T08:53:59;8.60;;;3.78;;
72939;SDS011;61094;51.154;13.570;2023-03-03T08:56:01;9.25;;;3.83;;
72939;SDS011;61094;51.154;13.570;2023-03-03T08:58:04;8.95;;;2.65;;
72939;SDS011;61094;51.154;13.570;2023-03-03T09:00:07;8.45;;;2.88;;
72939;SDS011;61094;51.154;13.570;2023-03-03T09:02:10;9.43;;;3.13;;
72939;SDS011;61094;51.154;13.570;2023-03-03T09:04:11;8.63;;;3.20;;
72939;SDS011;61094;51.154;13.570;2023-03-03T09:06:13;11.15;;;3.13;;
72939;SDS011;61094;51.154;13.570;2023-03-03T09:08:15;12.38;;;3.65;;
72939;SDS011;61094;51.154;13.570;2023-03-03T09:10:17;9.45;;;2.55;;
72939;SDS011;61094;51.154;13.570;2023-03-03T09:12:23;8.60;;;2.83;;
72939;SDS011;61094;51.154;13.570;2023-03-03T09:14:31;9.50;;;3.17;;
72939;SDS011;61094;51.154;13.570;2023-03-03T09:16:33;9.38;;;3.45;;
72939;SDS011;61094;51.154;13.570;2023-03-03T09:18:39;8.32;;;2.70;;
72939;SDS011;61094;51.154;13.570;2023-03-03T09:20:42;8.65;;;3.03;;
72939;SDS011;61094;51.154;13.570;2023-03-03T09:22:45;8.50;;;2.70;;
72939;SDS011;61094;51.154;13.570;2023-03-03T09:24:46;7.60;;;2.15;;
72939;SDS011;61094;51.154;13.570;2023-03-03T09:26:49;6.68;;;2.22;;
72939;SDS011;61094;51.154;13.570;2023-03-03T09:28:52;7.15;;;1.95;;
72939;SDS011;61094;51.154;13.570;2023-03-03T09:30:57;8.05;;;2.25;;
72939;SDS011;61094;51.154;13.570;2023-03-03T09:33:00;7.05;;;2.28;;
72939;SDS011;61094;51.154;13.570;2023-03-03T09:37:37;7.38;;;2.70;;
72939;SDS011;61094;51.154;13.570;2023-03-03T09:39:42;9.50;;;2.53;;
72939;SDS011;61094;51.154;13.570;2023-03-03T09:44:26;8.68;;;2.90;;
72939;SDS011;61094;51.154;13.570;2023-03-03T09:46:39;6.88;;;2.05;;
72939;SDS011;61094;51.154;13.570;2023-03-03T09:48:54;8.93;;;2.83;;
72939;SDS011;61094;51.154;13.570;2023-03-03T09:51:12;9.32;;;2.92;;
72939;SDS011;61094;51.154;13.570;2023-03-03T09:53:30;8.45;;;2.65;;
72939;SDS011;61094;51.154;13.570;2023-03-03T09:55:43;4.90;;;1.60;;
72939;SDS011;61094;51.154;13.570;2023-03-03T09:58:00;7.88;;;2.63;;
72939;SDS011;61094;51.154;13.570;2023-03-03T10:00:16;7.00;;;2.15;;
72939;SDS011;61094;51.154;13.570;2023-03-03T10:02:32;5.80;;;1.90;;
72939;SDS011;61094;51.154;13.570;2023-03-03T10:04:43;4.97;;;2.08;;
72939;SDS011;61094;51.154;13.570;2023-03-03T10:06:55;6.65;;;2.33;;
72939;SDS011;61094;51.154;13.570;2023-03-03T10:11:40;4.90;;;1.65;;
72939;SDS011;61094;51.154;13.570;2023-03-03T10:16:28;2.53;;;1.30;;
72939;SDS011;61094;51.154;13.570;2023-03-03T10:18:45;6.47;;;2.38;;
72939;SDS011;61094;51.154;13.570;2023-03-03T10:20:55;5.78;;;1.73;;
72939;SDS011;61094;51.154;13.570;2023-03-03T10:23:06;5.18;;;1.75;;
72939;SDS011;61094;51.154;13.570;2023-03-03T10:25:21;7.82;;;3.00;;
72939;SDS011;61094;51.154;13.570;2023-03-03T10:27:34;3.35;;;1.30;;
72939;SDS011;61094;51.154;13.570;2023-03-03T10:29:49;10.15;;;2.97;;
72939;SDS011;61094;51.154;13.570;2023-03-03T10:32:06;5.32;;;2.10;;
72939;SDS011;61094;51.154;13.570;2023-03-03T10:34:28;5.80;;;1.83;;
72939;SDS011;61094;51.154;13.570;2023-03-03T10:36:45;4.88;;;1.77;;
72939;SDS011;61094;51.154;13.570;2023-03-03T10:39:00;6.32;;;1.65;;
72939;SDS011;61094;51.154;13.570;2023-03-03T10:41:14;5.72;;;2.10;;
72939;SDS011;61094;51.154;13.570;2023-03-03T10:46:08;4.70;;;1.52;;
72939;SDS011;61094;51.154;13.570;2023-03-03T10:48:32;3.97;;;1.60;;
72939;SDS011;61094;51.154;13.570;2023-03-03T10:50:52;4.63;;;1.45;;
72939;SDS011;61094;51.154;13.570;2023-03-03T10:55:18;4.30;;;1.52;;
72939;SDS011;61094;51.154;13.570;2023-03-03T10:57:29;5.97;;;1.55;;
72939;SDS011;61094;51.154;13.570;2023-03-03T10:59:39;2.15;;;0.93;;
72939;SDS011;61094;51.154;13.570;2023-03-03T11:01:51;4.43;;;1.42;;
72939;SDS011;61094;51.154;13.570;2023-03-03T11:04:03;4.47;;;1.30;;
72939;SDS011;61094;51.154;13.570;2023-03-03T11:06:32;7.45;;;3.15;;
72939;SDS011;61094;51.154;13.570;2023-03-03T11:12:51;2.95;;;1.23;;
72939;SDS011;61094;51.154;13.570;2023-03-03T11:15:04;5.05;;;1.55;;
72939;SDS011;61094;51.154;13.570;2023-03-03T11:17:21;7.35;;;2.13;;
72939;SDS011;61094;51.154;13.570;2023-03-03T11:19:34;6.50;;;2.33;;
72939;SDS011;61094;51.154;13.570;2023-03-03T11:21:46;6.10;;;1.98;;
72939;SDS011;61094;51.154;13.570;2023-03-03T11:23:53;7.03;;;2.58;;
72939;SDS011;61094;51.154;13.570;2023-03-03T11:26:06;7.28;;;2.45;;
72939;SDS011;61094;51.154;13.570;2023-03-03T11:28:21;5.68;;;2.40;;
72939;SDS011;61094;51.154;13.570;2023-03-03T11:30:36;5.07;;;2.05;;
72939;SDS011;61094;51.154;13.570;2023-03-03T11:32:48;5.75;;;1.77;;
72939;SDS011;61094;51.154;13.570;2023-03-03T11:34:59;4.78;;;1.95;;
72939;SDS011;61094;51.154;13.570;2023-03-03T11:37:15;4.95;;;1.48;;
72939;SDS011;61094;51.154;13.570;2023-03-03T11:39:25;6.03;;;1.75;;
72939;SDS011;61094;51.154;13.570;2023-03-03T11:41:30;8.25;;;1.88;;
72939;SDS011;61094;51.154;13.570;2023-03-03T11:43:37;5.47;;;1.92;;
72939;SDS011;61094;51.154;13.570;2023-03-03T11:45:43;7.95;;;2.53;;
72939;SDS011;61094;51.154;13.570;2023-03-03T11:47:51;8.52;;;2.50;;
72939;SDS011;61094;51.154;13.570;2023-03-03T11:49:59;6.72;;;2.35;;
72939;SDS011;61094;51.154;13.570;2023-03-03T11:52:05;6.07;;;1.85;;
72939;SDS011;61094;51.154;13.570;2023-03-03T11:54:22;5.95;;;2.08;;
72939;SDS011;61094;51.154;13.570;2023-03-03T11:56:29;6.28;;;2.35;;
72939;SDS011;61094;51.154;13.570;2023-03-03T11:58:37;7.07;;;2.33;;
72939;SDS011;61094;51.154;13.570;2023-03-03T12:00:46;10.02;;;3.33;;
72939;SDS011;61094;51.154;13.570;2023-03-03T12:02:57;9.65;;;2.95;;
72939;SDS011;61094;51.154;13.570;2023-03-03T12:05:11;6.32;;;2.60;;
72939;SDS011;61094;51.154;13.570;2023-03-03T12:07:21;7.38;;;2.30;;
72939;SDS011;61094;51.154;13.570;2023-03-03T12:09:32;6.32;;;2.33;;
72939;SDS011;61094;51.154;13.570;2023-03-03T12:11:46;5.60;;;2.05;;
72939;SDS011;61094;51.154;13.570;2023-03-03T12:13:52;8.85;;;2.05;;
72939;SDS011;61094;51.154;13.570;2023-03-03T12:15:59;9.25;;;2.45;;
72939;SDS011;61094;51.154;13.570;2023-03-03T12:18:11;6.55;;;2.33;;
72939;SDS011;61094;51.154;13.570;2023-03-03T12:20:36;7.35;;;2.22;;
72939;SDS011;61094;51.154;13.570;2023-03-03T12:22:49;8.23;;;2.33;;
72939;SDS011;61094;51.154;13.570;2023-03-03T12:27:25;7.47;;;2.72;;
72939;SDS011;61094;51.154;13.570;2023-03-03T12:29:34;8.35;;;2.15;;
72939;SDS011;61094;51.154;13.570;2023-03-03T12:31:46;7.65;;;2.15;;
72939;SDS011;61094;51.154;13.570;2023-03-03T12:33:54;9.00;;;2.33;;
72939;SDS011;61094;51.154;13.570;2023-03-03T12:36:01;7.88;;;2.05;;
72939;SDS011;61094;51.154;13.570;2023-03-03T12:38:14;6.72;;;2.17;;
72939;SDS011;61094;51.154;13.570;2023-03-03T12:40:23;10.80;;;2.78;;
72939;SDS011;61094;51.154;13.570;2023-03-03T12:42:33;7.05;;;2.33;;
72939;SDS011;61094;51.154;13.570;2023-03-03T12:44:46;9.52;;;3.28;;
72939;SDS011;61094;51.154;13.570;2023-03-03T12:46:58;7.43;;;2.22;;
72939;SDS011;61094;51.154;13.570;2023-03-03T12:49:05;6.25;;;1.88;;
72939;SDS011;61094;51.154;13.570;2023-03-03T12:51:09;8.43;;;2.60;;